sensor_id;sensor_type;location;lat;lon;timestamp;temperature;humidity
72814;DHT22;60945;48.516;-2.768;2023-06-22T00:00:43;18.00;81.30
72814;DHT22;60945;48.516;-2.768;2023-06-22T00:03:10;18.10;81.10
72814;DHT22;60945;48.516;-2.768;2023-06-22T00:05:35;18.10;81.20
72814;DHT22;60945;48.516;-2.768;2023-06-22T00:08:04;18.10;81.10
72814;DHT22;60945;48.516;-2.768;2023-06-22T00:10:32;18.10;80.80
72814;DHT22;60945;48.516;-2.768;2023-06-22T00:12:58;18.00;81.10
72814;DHT22;60945;48.516;-2.768;2023-06-22T00:15:24;18.00;81.30
72814;DHT22;60945;48.516;-2.768;2023-06-22T00:17:50;17.90;81.50
72814;DHT22;60945;48.516;-2.768;2023-06-22T00:20:16;17.90;81.80
72814;DHT22;60945;48.516;-2.768;2023-06-22T00:22:46;17.90;81.80
72814;DHT22;60945;48.516;-2.768;2023-06-22T00:25:13;17.90;81.80
72814;DHT22;60945;48.516;-2.768;2023-06-22T00:27:38;17.80;81.80
72814;DHT22;60945;48.516;-2.768;2023-06-22T00:30:05;17.80;81.90
72814;DHT22;60945;48.516;-2.768;2023-06-22T00:32:30;17.80;82.00
72814;DHT22;60945;48.516;-2.768;2023-06-22T00:34:56;17.70;82.00
72814;DHT22;60945;48.516;-2.768;2023-06-22T00:37:21;17.70;82.00
72814;DHT22;60945;48.516;-2.768;2023-06-22T00:39:51;17.80;82.00
72814;DHT22;60945;48.516;-2.768;2023-06-22T00:42:17;17.70;82.20
72814;DHT22;60945;48.516;-2.768;2023-06-22T00:44:43;17.80;82.10
72814;DHT22;60945;48.516;-2.768;2023-06-22T00:47:11;17.80;81.90
72814;DHT22;60945;48.516;-2.768;2023-06-22T00:49:38;17.70;82.20
72814;DHT22;60945;48.516;-2.768;2023-06-22T00:52:05;17.70;81.90
72814;DHT22;60945;48.516;-2.768;2023-06-22T00:54:37;17.70;81.80
72814;DHT22;60945;48.516;-2.768;2023-06-22T00:57:03;17.60;82.30
72814;DHT22;60945;48.516;-2.768;2023-06-22T00:59:29;17.70;82.20
72814;DHT22;60945;48.516;-2.768;2023-06-22T01:01:55;17.70;82.10
72814;DHT22;60945;48.516;-2.768;2023-06-22T01:04:34;17.60;82.30
72814;DHT22;60945;48.516;-2.768;2023-06-22T01:12:44;17.60;82.20
72814;DHT22;60945;48.516;-2.768;2023-06-22T01:15:15;17.50;82.80
72814;DHT22;60945;48.516;-2.768;2023-06-22T01:17:45;17.50;82.80
72814;DHT22;60945;48.516;-2.768;2023-06-22T01:20:14;17.50;82.70
72814;DHT22;60945;48.516;-2.768;2023-06-22T01:26:04;17.40;82.80
72814;DHT22;60945;48.516;-2.768;2023-06-22T01:31:04;17.40;83.10
72814;DHT22;60945;48.516;-2.768;2023-06-22T01:33:34;17.40;83.10
72814;DHT22;60945;48.516;-2.768;2023-06-22T01:36:01;17.40;82.90
72814;DHT22;60945;48.516;-2.768;2023-06-22T01:38:29;17.40;82.90
72814;DHT22;60945;48.516;-2.768;2023-06-22T01:40:56;17.40;82.90
72814;DHT22;60945;48.516;-2.768;2023-06-22T01:43:25;17.40;82.80
72814;DHT22;60945;48.516;-2.768;2023-06-22T01:45:52;17.50;82.60
72814;DHT22;60945;48.516;-2.768;2023-06-22T01:48:19;17.50;82.70
72814;DHT22;60945;48.516;-2.768;2023-06-22T01:50:45;17.40;82.80
72814;DHT22;60945;48.516;-2.768;2023-06-22T01:53:12;17.40;83.30
72814;DHT22;60945;48.516;-2.768;2023-06-22T01:55:37;17.50;83.10
72814;DHT22;60945;48.516;-2.768;2023-06-22T01:58:03;17.50;82.90
72814;DHT22;60945;48.516;-2.768;2023-06-22T02:00:32;17.50;83.10
72814;DHT22;60945;48.516;-2.768;2023-06-22T02:03:10;17.50;82.80
72814;DHT22;60945;48.516;-2.768;2023-06-22T02:05:39;17.50;83.00
72814;DHT22;60945;48.516;-2.768;2023-06-22T02:08:11;17.50;83.10
72814;DHT22;60945;48.516;-2.768;2023-06-22T02:10:40;17.50;83.40
72814;DHT22;60945;48.516;-2.768;2023-06-22T02:13:07;17.50;83.10
72814;DHT22;60945;48.516;-2.768;2023-06-22T02:15:34;17.50;83.20
72814;DHT22;60945;48.516;-2.768;2023-06-22T02:18:01;17.40;83.30
72814;DHT22;60945;48.516;-2.768;2023-06-22T02:20:26;17.50;83.30
72814;DHT22;60945;48.516;-2.768;2023-06-22T02:22:52;17.50;83.10
72814;DHT22;60945;48.516;-2.768;2023-06-22T02:25:18;17.40;83.30
72814;DHT22;60945;48.516;-2.768;2023-06-22T02:27:45;17.40;83.40
72814;DHT22;60945;48.516;-2.768;2023-06-22T02:30:11;17.50;83.00
72814;DHT22;60945;48.516;-2.768;2023-06-22T02:32:37;17.40;83.50
72814;DHT22;60945;48.516;-2.768;2023-06-22T02:35:07;17.40;83.50
72814;DHT22;60945;48.516;-2.768;2023-06-22T02:37:35;17.40;83.30
72814;DHT22;60945;48.516;-2.768;2023-06-22T02:40:01;17.40;83.70
72814;DHT22;60945;48.516;-2.768;2023-06-22T02:42:28;17.40;83.50
72814;DHT22;60945;48.516;-2.768;2023-06-22T02:44:54;17.40;83.70
72814;DHT22;60945;48.516;-2.768;2023-06-22T02:47:19;17.30;83.80
72814;DHT22;60945;48.516;-2.768;2023-06-22T02:49:45;17.30;83.80
72814;DHT22;60945;48.516;-2.768;2023-06-22T02:52:12;17.30;83.80
72814;DHT22;60945;48.516;-2.768;2023-06-22T02:54:37;17.40;83.80
72814;DHT22;60945;48.516;-2.768;2023-06-22T02:57:03;17.40;83.50
72814;DHT22;60945;48.516;-2.768;2023-06-22T02:59:29;17.30;83.60
72814;DHT22;60945;48.516;-2.768;2023-06-22T03:01:55;17.30;83.70
72814;DHT22;60945;48.516;-2.768;2023-06-22T03:04:21;17.30;84.10
72814;DHT22;60945;48.516;-2.768;2023-06-22T03:06:46;17.30;84.10
72814;DHT22;60945;48.516;-2.768;2023-06-22T03:09:17;17.20;84.00
72814;DHT22;60945;48.516;-2.768;2023-06-22T03:11:42;17.20;84.30
72814;DHT22;60945;48.516;-2.768;2023-06-22T03:14:08;17.20;84.50
72814;DHT22;60945;48.516;-2.768;2023-06-22T03:16:34;17.20;84.50
72814;DHT22;60945;48.516;-2.768;2023-06-22T03:19:00;17.20;84.70
72814;DHT22;60945;48.516;-2.768;2023-06-22T03:21:28;17.30;84.60
72814;DHT22;60945;48.516;-2.768;2023-06-22T03:23:54;17.20;84.60
72814;DHT22;60945;48.516;-2.768;2023-06-22T03:26:19;17.20;84.70
72814;DHT22;60945;48.516;-2.768;2023-06-22T03:28:45;17.20;84.80
72814;DHT22;60945;48.516;-2.768;2023-06-22T03:31:11;17.20;84.70
72814;DHT22;60945;48.516;-2.768;2023-06-22T03:33:37;17.20;84.80
72814;DHT22;60945;48.516;-2.768;2023-06-22T03:36:03;17.20;84.50
72814;DHT22;60945;48.516;-2.768;2023-06-22T03:38:28;17.20;84.50
72814;DHT22;60945;48.516;-2.768;2023-06-22T03:40:54;17.30;84.40
72814;DHT22;60945;48.516;-2.768;2023-06-22T03:43:20;17.30;84.30
72814;DHT22;60945;48.516;-2.768;2023-06-22T03:45:45;17.30;84.20
72814;DHT22;60945;48.516;-2.768;2023-06-22T03:48:12;17.40;84.10
72814;DHT22;60945;48.516;-2.768;2023-06-22T03:50:37;17.40;83.80
72814;DHT22;60945;48.516;-2.768;2023-06-22T03:53:03;17.40;83.70
72814;DHT22;60945;48.516;-2.768;2023-06-22T03:55:29;17.30;84.10
72814;DHT22;60945;48.516;-2.768;2023-06-22T03:57:55;17.30;84.10
72814;DHT22;60945;48.516;-2.768;2023-06-22T04:00:23;17.30;83.70
72814;DHT22;60945;48.516;-2.768;2023-06-22T04:02:49;17.30;83.80
72814;DHT22;60945;48.516;-2.768;2023-06-22T04:05:15;17.40;83.70
72814;DHT22;60945;48.516;-2.768;2023-06-22T04:07:42;17.40;83.30
72814;DHT22;60945;48.516;-2.768;2023-06-22T04:10:08;17.40;83.20
72814;DHT22;60945;48.516;-2.768;2023-06-22T04:12:34;17.40;83.20
72814;DHT22;60945;48.516;-2.768;2023-06-22T04:15:00;17.40;83.20
72814;DHT22;60945;48.516;-2.768;2023-06-22T04:17:25;17.40;83.00
72814;DHT22;60945;48.516;-2.768;2023-06-22T04:19:51;17.40;83.10
72814;DHT22;60945;48.516;-2.768;2023-06-22T04:22:17;17.40;83.00
72814;DHT22;60945;48.516;-2.768;2023-06-22T04:24:44;17.30;83.20
72814;DHT22;60945;48.516;-2.768;2023-06-22T04:27:09;17.30;83.30
72814;DHT22;60945;48.516;-2.768;2023-06-22T04:29:35;17.40;83.20
72814;DHT22;60945;48.516;-2.768;2023-06-22T04:32:01;17.40;83.10
72814;DHT22;60945;48.516;-2.768;2023-06-22T04:34:30;17.40;83.10
72814;DHT22;60945;48.516;-2.768;2023-06-22T04:36:56;17.50;82.80
72814;DHT22;60945;48.516;-2.768;2023-06-22T04:39:22;17.40;82.70
72814;DHT22;60945;48.516;-2.768;2023-06-22T04:41:49;17.40;83.00
72814;DHT22;60945;48.516;-2.768;2023-06-22T04:44:18;17.50;82.70
72814;DHT22;60945;48.516;-2.768;2023-06-22T04:46:59;17.50;82.90
72814;DHT22;60945;48.516;-2.768;2023-06-22T04:49:30;17.50;82.90
72814;DHT22;60945;48.516;-2.768;2023-06-22T04:51:59;17.50;82.40
72814;DHT22;60945;48.516;-2.768;2023-06-22T04:54:25;17.50;82.40
72814;DHT22;60945;48.516;-2.768;2023-06-22T04:56:51;17.50;82.30
72814;DHT22;60945;48.516;-2.768;2023-06-22T04:59:23;17.50;82.20
72814;DHT22;60945;48.516;-2.768;2023-06-22T05:01:54;17.60;82.10
72814;DHT22;60945;48.516;-2.768;2023-06-22T05:04:21;17.60;81.90
72814;DHT22;60945;48.516;-2.768;2023-06-22T05:06:48;17.60;81.90
72814;DHT22;60945;48.516;-2.768;2023-06-22T05:09:14;17.60;81.80
72814;DHT22;60945;48.516;-2.768;2023-06-22T05:11:40;17.60;81.90
72814;DHT22;60945;48.516;-2.768;2023-06-22T05:14:05;17.60;81.80
72814;DHT22;60945;48.516;-2.768;2023-06-22T05:16:32;17.60;81.60
72814;DHT22;60945;48.516;-2.768;2023-06-22T05:18:58;17.60;81.50
72814;DHT22;60945;48.516;-2.768;2023-06-22T05:21:25;17.70;81.50
72814;DHT22;60945;48.516;-2.768;2023-06-22T05:23:52;17.60;81.80
72814;DHT22;60945;48.516;-2.768;2023-06-22T05:26:19;17.60;82.00
72814;DHT22;60945;48.516;-2.768;2023-06-22T05:28:46;17.60;81.80
72814;DHT22;60945;48.516;-2.768;2023-06-22T05:31:15;17.60;81.70
72814;DHT22;60945;48.516;-2.768;2023-06-22T05:33:42;17.60;81.80
72814;DHT22;60945;48.516;-2.768;2023-06-22T05:36:08;17.70;81.50
72814;DHT22;60945;48.516;-2.768;2023-06-22T05:38:35;17.70;81.30
72814;DHT22;60945;48.516;-2.768;2023-06-22T05:41:01;17.80;81.20
72814;DHT22;60945;48.516;-2.768;2023-06-22T05:43:26;17.80;81.00
72814;DHT22;60945;48.516;-2.768;2023-06-22T05:45:52;17.90;80.50
72814;DHT22;60945;48.516;-2.768;2023-06-22T05:48:18;18.00;80.50
72814;DHT22;60945;48.516;-2.768;2023-06-22T05:50:43;18.00;80.00
72814;DHT22;60945;48.516;-2.768;2023-06-22T05:53:09;18.00;80.00
72814;DHT22;60945;48.516;-2.768;2023-06-22T05:55:35;17.90;80.10
72814;DHT22;60945;48.516;-2.768;2023-06-22T05:58:01;17.80;80.10
72814;DHT22;60945;48.516;-2.768;2023-06-22T06:00:27;17.90;80.30
72814;DHT22;60945;48.516;-2.768;2023-06-22T06:02:52;18.00;79.80
72814;DHT22;60945;48.516;-2.768;2023-06-22T06:05:18;18.00;80.10
72814;DHT22;60945;48.516;-2.768;2023-06-22T06:07:45;18.10;79.30
72814;DHT22;60945;48.516;-2.768;2023-06-22T06:10:11;18.20;79.10
72814;DHT22;60945;48.516;-2.768;2023-06-22T06:12:37;18.20;78.90
72814;DHT22;60945;48.516;-2.768;2023-06-22T06:15:03;18.40;78.00
72814;DHT22;60945;48.516;-2.768;2023-06-22T06:17:29;18.40;77.60
72814;DHT22;60945;48.516;-2.768;2023-06-22T06:19:55;18.40;77.60
72814;DHT22;60945;48.516;-2.768;2023-06-22T06:22:21;18.40;77.80
72814;DHT22;60945;48.516;-2.768;2023-06-22T06:24:49;18.50;76.90
72814;DHT22;60945;48.516;-2.768;2023-06-22T06:27:15;18.50;77.00
72814;DHT22;60945;48.516;-2.768;2023-06-22T06:29:43;18.40;77.60
72814;DHT22;60945;48.516;-2.768;2023-06-22T06:32:11;18.50;76.90
72814;DHT22;60945;48.516;-2.768;2023-06-22T06:34:37;18.50;76.80
72814;DHT22;60945;48.516;-2.768;2023-06-22T06:37:03;18.50;77.40
72814;DHT22;60945;48.516;-2.768;2023-06-22T06:39:29;18.60;76.80
72814;DHT22;60945;48.516;-2.768;2023-06-22T06:41:54;18.60;76.40
72814;DHT22;60945;48.516;-2.768;2023-06-22T06:44:20;18.70;76.00
72814;DHT22;60945;48.516;-2.768;2023-06-22T06:46:46;18.80;75.80
72814;DHT22;60945;48.516;-2.768;2023-06-22T06:49:12;18.80;75.20
72814;DHT22;60945;48.516;-2.768;2023-06-22T06:51:38;18.70;75.40
72814;DHT22;60945;48.516;-2.768;2023-06-22T06:54:04;18.80;75.30
72814;DHT22;60945;48.516;-2.768;2023-06-22T06:56:30;18.80;74.60
72814;DHT22;60945;48.516;-2.768;2023-06-22T06:58:55;18.90;74.80
72814;DHT22;60945;48.516;-2.768;2023-06-22T07:01:21;18.90;74.20
72814;DHT22;60945;48.516;-2.768;2023-06-22T07:03:47;18.80;74.30
72814;DHT22;60945;48.516;-2.768;2023-06-22T07:06:13;18.90;73.40
72814;DHT22;60945;48.516;-2.768;2023-06-22T07:08:39;19.00;73.20
72814;DHT22;60945;48.516;-2.768;2023-06-22T07:11:05;19.00;73.50
72814;DHT22;60945;48.516;-2.768;2023-06-22T07:13:32;19.10;73.20
72814;DHT22;60945;48.516;-2.768;2023-06-22T07:15:59;19.10;73.30
72814;DHT22;60945;48.516;-2.768;2023-06-22T07:18:24;19.10;73.60
72814;DHT22;60945;48.516;-2.768;2023-06-22T07:20:52;19.30;73.40
72814;DHT22;60945;48.516;-2.768;2023-06-22T07:23:17;19.40;72.50
72814;DHT22;60945;48.516;-2.768;2023-06-22T07:25:43;19.50;72.20
72814;DHT22;60945;48.516;-2.768;2023-06-22T07:28:09;19.30;72.10
72814;DHT22;60945;48.516;-2.768;2023-06-22T07:30:35;19.40;71.70
72814;DHT22;60945;48.516;-2.768;2023-06-22T07:33:01;19.50;72.30
72814;DHT22;60945;48.516;-2.768;2023-06-22T07:35:32;19.90;71.10
72814;DHT22;60945;48.516;-2.768;2023-06-22T07:37:59;20.10;70.90
72814;DHT22;60945;48.516;-2.768;2023-06-22T07:40:24;20.10;70.20
72814;DHT22;60945;48.516;-2.768;2023-06-22T07:42:50;20.30;69.00
72814;DHT22;60945;48.516;-2.768;2023-06-22T07:45:17;20.20;69.40
72814;DHT22;60945;48.516;-2.768;2023-06-22T07:47:43;20.10;69.40
72814;DHT22;60945;48.516;-2.768;2023-06-22T07:50:09;20.10;69.00
72814;DHT22;60945;48.516;-2.768;2023-06-22T07:52:35;20.20;68.50
72814;DHT22;60945;48.516;-2.768;2023-06-22T07:55:00;20.20;68.70
72814;DHT22;60945;48.516;-2.768;2023-06-22T07:57:27;20.10;69.10
72814;DHT22;60945;48.516;-2.768;2023-06-22T07:59:59;19.90;69.00
72814;DHT22;60945;48.516;-2.768;2023-06-22T08:02:25;19.90;69.50
72814;DHT22;60945;48.516;-2.768;2023-06-22T08:04:51;20.20;69.20
72814;DHT22;60945;48.516;-2.768;2023-06-22T08:07:17;20.20;68.40
72814;DHT22;60945;48.516;-2.768;2023-06-22T08:09:47;20.20;68.50
72814;DHT22;60945;48.516;-2.768;2023-06-22T08:12:13;20.10;69.10
72814;DHT22;60945;48.516;-2.768;2023-06-22T08:14:41;20.00;68.30
72814;DHT22;60945;48.516;-2.768;2023-06-22T08:17:07;20.10;68.30
72814;DHT22;60945;48.516;-2.768;2023-06-22T08:19:33;20.20;67.70
72814;DHT22;60945;48.516;-2.768;2023-06-22T08:21:58;20.40;67.60
72814;DHT22;60945;48.516;-2.768;2023-06-22T08:24:24;20.80;66.00
72814;DHT22;60945;48.516;-2.768;2023-06-22T08:26:51;20.80;65.90
72814;DHT22;60945;48.516;-2.768;2023-06-22T08:29:17;21.00;65.70
72814;DHT22;60945;48.516;-2.768;2023-06-22T08:31:43;21.20;64.50
72814;DHT22;60945;48.516;-2.768;2023-06-22T08:34:09;21.40;63.60
72814;DHT22;60945;48.516;-2.768;2023-06-22T08:36:34;21.70;62.50
72814;DHT22;60945;48.516;-2.768;2023-06-22T08:39:03;21.70;61.60
72814;DHT22;60945;48.516;-2.768;2023-06-22T08:41:29;21.70;62.20
72814;DHT22;60945;48.516;-2.768;2023-06-22T08:43:55;21.70;62.20
72814;DHT22;60945;48.516;-2.768;2023-06-22T08:46:21;21.60;62.60
72814;DHT22;60945;48.516;-2.768;2023-06-22T08:48:49;21.60;62.70
72814;DHT22;60945;48.516;-2.768;2023-06-22T08:51:16;21.50;63.20
72814;DHT22;60945;48.516;-2.768;2023-06-22T08:53:42;21.60;63.50
72814;DHT22;60945;48.516;-2.768;2023-06-22T08:56:08;21.70;62.70
72814;DHT22;60945;48.516;-2.768;2023-06-22T08:58:34;21.80;62.70
72814;DHT22;60945;48.516;-2.768;2023-06-22T09:00:59;22.00;62.00
72814;DHT22;60945;48.516;-2.768;2023-06-22T09:03:26;22.20;61.00
72814;DHT22;60945;48.516;-2.768;2023-06-22T09:05:52;22.20;61.10
72814;DHT22;60945;48.516;-2.768;2023-06-22T09:08:18;22.10;61.10
72814;DHT22;60945;48.516;-2.768;2023-06-22T09:10:43;22.20;61.00
72814;DHT22;60945;48.516;-2.768;2023-06-22T09:13:09;22.20;61.00
72814;DHT22;60945;48.516;-2.768;2023-06-22T09:15:35;22.30;60.80
72814;DHT22;60945;48.516;-2.768;2023-06-22T09:18:00;22.40;60.50
72814;DHT22;60945;48.516;-2.768;2023-06-22T09:20:26;22.80;59.70
72814;DHT22;60945;48.516;-2.768;2023-06-22T09:22:52;23.00;59.80
72814;DHT22;60945;48.516;-2.768;2023-06-22T09:25:17;22.80;60.10
72814;DHT22;60945;48.516;-2.768;2023-06-22T09:27:46;22.80;61.40
72814;DHT22;60945;48.516;-2.768;2023-06-22T09:30:12;23.10;60.40
72814;DHT22;60945;48.516;-2.768;2023-06-22T09:32:37;23.10;60.60
72814;DHT22;60945;48.516;-2.768;2023-06-22T09:35:06;22.90;61.00
72814;DHT22;60945;48.516;-2.768;2023-06-22T09:37:33;22.90;61.40
72814;DHT22;60945;48.516;-2.768;2023-06-22T09:39:59;22.90;61.40
72814;DHT22;60945;48.516;-2.768;2023-06-22T09:42:25;22.60;62.50
72814;DHT22;60945;48.516;-2.768;2023-06-22T09:44:51;22.80;62.60
72814;DHT22;60945;48.516;-2.768;2023-06-22T09:47:16;22.70;62.90
72814;DHT22;60945;48.516;-2.768;2023-06-22T09:49:42;22.90;62.70
72814;DHT22;60945;48.516;-2.768;2023-06-22T09:52:07;23.40;61.30
72814;DHT22;60945;48.516;-2.768;2023-06-22T09:54:33;23.90;59.90
72814;DHT22;60945;48.516;-2.768;2023-06-22T09:56:59;24.00;59.30
72814;DHT22;60945;48.516;-2.768;2023-06-22T09:59:24;23.90;59.70
72814;DHT22;60945;48.516;-2.768;2023-06-22T10:01:50;24.30;58.50
72814;DHT22;60945;48.516;-2.768;2023-06-22T10:04:16;24.50;58.60
72814;DHT22;60945;48.516;-2.768;2023-06-22T10:06:41;24.60;57.60
72814;DHT22;60945;48.516;-2.768;2023-06-22T10:09:07;24.70;57.20
72814;DHT22;60945;48.516;-2.768;2023-06-22T10:11:33;24.50;58.00
72814;DHT22;60945;48.516;-2.768;2023-06-22T10:14:01;24.60;57.50
72814;DHT22;60945;48.516;-2.768;2023-06-22T10:16:36;24.70;57.00
72814;DHT22;60945;48.516;-2.768;2023-06-22T10:19:02;25.00;56.90
72814;DHT22;60945;48.516;-2.768;2023-06-22T10:21:28;25.30;56.10
72814;DHT22;60945;48.516;-2.768;2023-06-22T10:23:54;25.20;56.10
72814;DHT22;60945;48.516;-2.768;2023-06-22T10:26:20;24.90;57.00
72814;DHT22;60945;48.516;-2.768;2023-06-22T10:28:46;24.90;56.60
72814;DHT22;60945;48.516;-2.768;2023-06-22T10:31:12;24.90;56.50
72814;DHT22;60945;48.516;-2.768;2023-06-22T10:33:38;25.20;55.70
72814;DHT22;60945;48.516;-2.768;2023-06-22T10:36:04;25.60;54.20
72814;DHT22;60945;48.516;-2.768;2023-06-22T10:38:30;25.40;54.40
72814;DHT22;60945;48.516;-2.768;2023-06-22T10:40:55;25.80;54.00
72814;DHT22;60945;48.516;-2.768;2023-06-22T10:43:21;25.90;52.70
72814;DHT22;60945;48.516;-2.768;2023-06-22T10:45:46;25.90;52.60
72814;DHT22;60945;48.516;-2.768;2023-06-22T10:48:12;25.80;53.30
72814;DHT22;60945;48.516;-2.768;2023-06-22T10:50:38;26.00;52.70
72814;DHT22;60945;48.516;-2.768;2023-06-22T10:53:03;26.00;53.50
72814;DHT22;60945;48.516;-2.768;2023-06-22T10:55:29;26.40;52.40
72814;DHT22;60945;48.516;-2.768;2023-06-22T10:57:55;26.70;51.10
72814;DHT22;60945;48.516;-2.768;2023-06-22T11:00:20;26.40;52.00
72814;DHT22;60945;48.516;-2.768;2023-06-22T11:02:46;26.60;51.40
72814;DHT22;60945;48.516;-2.768;2023-06-22T11:05:12;26.80;50.70
72814;DHT22;60945;48.516;-2.768;2023-06-22T11:07:42;26.80;50.90
72814;DHT22;60945;48.516;-2.768;2023-06-22T11:10:08;26.60;51.20
72814;DHT22;60945;48.516;-2.768;2023-06-22T11:12:34;27.00;49.80
72814;DHT22;60945;48.516;-2.768;2023-06-22T11:14:59;27.00;49.20
72814;DHT22;60945;48.516;-2.768;2023-06-22T11:17:25;27.00;49.50
72814;DHT22;60945;48.516;-2.768;2023-06-22T11:19:51;26.40;50.30
72814;DHT22;60945;48.516;-2.768;2023-06-22T11:22:16;26.30;51.10
72814;DHT22;60945;48.516;-2.768;2023-06-22T11:24:42;26.20;51.80
72814;DHT22;60945;48.516;-2.768;2023-06-22T11:27:08;26.30;50.90
72814;DHT22;60945;48.516;-2.768;2023-06-22T11:29:33;26.50;50.20
72814;DHT22;60945;48.516;-2.768;2023-06-22T11:31:59;26.60;50.50
72814;DHT22;60945;48.516;-2.768;2023-06-22T11:34:24;26.60;48.50
72814;DHT22;60945;48.516;-2.768;2023-06-22T11:36:50;26.70;50.50
72814;DHT22;60945;48.516;-2.768;2023-06-22T11:39:16;26.80;50.30
72814;DHT22;60945;48.516;-2.768;2023-06-22T11:41:41;27.20;49.60
72814;DHT22;60945;48.516;-2.768;2023-06-22T11:44:08;27.50;49.60
72814;DHT22;60945;48.516;-2.768;2023-06-22T11:46:34;27.60;49.20
72814;DHT22;60945;48.516;-2.768;2023-06-22T11:49:00;27.20;49.70
72814;DHT22;60945;48.516;-2.768;2023-06-22T11:51:26;27.10;49.90
72814;DHT22;60945;48.516;-2.768;2023-06-22T11:53:51;27.20;48.50
72814;DHT22;60945;48.516;-2.768;2023-06-22T11:56:17;27.10;49.00
72814;DHT22;60945;48.516;-2.768;2023-06-22T11:58:42;26.80;49.90
72814;DHT22;60945;48.516;-2.768;2023-06-22T12:01:08;26.80;49.80
72814;DHT22;60945;48.516;-2.768;2023-06-22T12:03:34;26.90;50.60
72814;DHT22;60945;48.516;-2.768;2023-06-22T12:06:00;27.10;49.20
72814;DHT22;60945;48.516;-2.768;2023-06-22T12:08:26;26.90;49.40
72814;DHT22;60945;48.516;-2.768;2023-06-22T12:10:51;26.20;52.30
72814;DHT22;60945;48.516;-2.768;2023-06-22T12:13:19;26.40;51.40
72814;DHT22;60945;48.516;-2.768;2023-06-22T12:15:45;26.40;50.80
72814;DHT22;60945;48.516;-2.768;2023-06-22T12:18:11;26.10;52.20
72814;DHT22;60945;48.516;-2.768;2023-06-22T12:20:36;25.80;53.50
72814;DHT22;60945;48.516;-2.768;2023-06-22T12:23:02;26.40;52.00
72814;DHT22;60945;48.516;-2.768;2023-06-22T12:25:28;26.30;52.60
72814;DHT22;60945;48.516;-2.768;2023-06-22T12:27:56;26.10;53.10
72814;DHT22;60945;48.516;-2.768;2023-06-22T12:30:22;26.10;53.60
72814;DHT22;60945;48.516;-2.768;2023-06-22T12:32:47;26.10;53.00
72814;DHT22;60945;48.516;-2.768;2023-06-22T12:35:16;26.10;52.00
72814;DHT22;60945;48.516;-2.768;2023-06-22T12:37:42;26.30;51.00
72814;DHT22;60945;48.516;-2.768;2023-06-22T12:40:08;26.30;50.40
72814;DHT22;60945;48.516;-2.768;2023-06-22T12:42:34;26.50;50.30
72814;DHT22;60945;48.516;-2.768;2023-06-22T12:45:00;26.80;50.20
72814;DHT22;60945;48.516;-2.768;2023-06-22T12:47:25;27.00;49.80
72814;DHT22;60945;48.516;-2.768;2023-06-22T12:49:51;26.90;49.80
72814;DHT22;60945;48.516;-2.768;2023-06-22T12:52:17;27.00;49.40
72814;DHT22;60945;48.516;-2.768;2023-06-22T12:54:42;26.70;50.20
72814;DHT22;60945;48.516;-2.768;2023-06-22T12:57:08;26.60;50.40
72814;DHT22;60945;48.516;-2.768;2023-06-22T12:59:34;26.70;50.30
72814;DHT22;60945;48.516;-2.768;2023-06-22T13:01:59;26.30;51.20
72814;DHT22;60945;48.516;-2.768;2023-06-22T13:04:25;26.50;50.60
72814;DHT22;60945;48.516;-2.768;2023-06-22T13:06:51;26.70;49.70
72814;DHT22;60945;48.516;-2.768;2023-06-22T13:09:18;26.50;49.80
72814;DHT22;60945;48.516;-2.768;2023-06-22T13:11:44;26.60;50.10
72814;DHT22;60945;48.516;-2.768;2023-06-22T13:14:10;26.90;49.20
72814;DHT22;60945;48.516;-2.768;2023-06-22T13:16:36;27.20;48.70
72814;DHT22;60945;48.516;-2.768;2023-06-22T13:19:01;26.80;49.50
72814;DHT22;60945;48.516;-2.768;2023-06-22T13:21:27;26.80;49.20
72814;DHT22;60945;48.516;-2.768;2023-06-22T13:23:53;26.80;49.10
72814;DHT22;60945;48.516;-2.768;2023-06-22T13:26:18;26.90;49.10
72814;DHT22;60945;48.516;-2.768;2023-06-22T13:28:44;26.90;48.70
72814;DHT22;60945;48.516;-2.768;2023-06-22T13:31:10;26.80;49.00
72814;DHT22;60945;48.516;-2.768;2023-06-22T13:33:37;26.90;48.60
72814;DHT22;60945;48.516;-2.768;2023-06-22T13:36:03;27.20;47.60
72814;DHT22;60945;48.516;-2.768;2023-06-22T13:38:29;26.70;48.50
72814;DHT22;60945;48.516;-2.768;2023-06-22T13:40:56;26.80;47.10
72814;DHT22;60945;48.516;-2.768;2023-06-22T13:43:24;27.10;46.60
72814;DHT22;60945;48.516;-2.768;2023-06-22T13:45:49;27.20;46.10
72814;DHT22;60945;48.516;-2.768;2023-06-22T13:48:15;27.10;46.00
72814;DHT22;60945;48.516;-2.768;2023-06-22T13:50:41;26.80;46.40
72814;DHT22;60945;48.516;-2.768;2023-06-22T13:53:06;26.80;46.20
72814;DHT22;60945;48.516;-2.768;2023-06-22T13:55:32;27.10;46.40
72814;DHT22;60945;48.516;-2.768;2023-06-22T13:57:58;27.00;45.60
72814;DHT22;60945;48.516;-2.768;2023-06-22T14:00:23;26.80;46.40
72814;DHT22;60945;48.516;-2.768;2023-06-22T14:02:49;27.10;46.10
72814;DHT22;60945;48.516;-2.768;2023-06-22T14:05:14;27.30;45.80
72814;DHT22;60945;48.516;-2.768;2023-06-22T14:07:40;27.00;47.10
72814;DHT22;60945;48.516;-2.768;2023-06-22T14:10:06;26.80;47.50
72814;DHT22;60945;48.516;-2.768;2023-06-22T14:12:32;26.80;47.10
72814;DHT22;60945;48.516;-2.768;2023-06-22T14:14:57;26.70;47.60
72814;DHT22;60945;48.516;-2.768;2023-06-22T14:17:23;26.70;48.00
72814;DHT22;60945;48.516;-2.768;2023-06-22T14:19:51;27.10;47.20
72814;DHT22;60945;48.516;-2.768;2023-06-22T14:22:19;27.20;46.40
72814;DHT22;60945;48.516;-2.768;2023-06-22T14:24:45;26.60;48.30
72814;DHT22;60945;48.516;-2.768;2023-06-22T14:27:10;27.10;47.00
72814;DHT22;60945;48.516;-2.768;2023-06-22T14:29:36;26.90;47.40
72814;DHT22;60945;48.516;-2.768;2023-06-22T14:32:02;26.90;47.00
72814;DHT22;60945;48.516;-2.768;2023-06-22T14:34:27;26.60;47.80
72814;DHT22;60945;48.516;-2.768;2023-06-22T14:36:53;26.50;48.50
72814;DHT22;60945;48.516;-2.768;2023-06-22T14:39:19;26.50;48.50
72814;DHT22;60945;48.516;-2.768;2023-06-22T14:41:46;26.50;48.10
72814;DHT22;60945;48.516;-2.768;2023-06-22T14:44:12;26.10;49.20
72814;DHT22;60945;48.516;-2.768;2023-06-22T14:46:37;26.30;48.60
72814;DHT22;60945;48.516;-2.768;2023-06-22T14:49:03;25.70;49.80
72814;DHT22;60945;48.516;-2.768;2023-06-22T14:51:28;25.60;50.60
72814;DHT22;60945;48.516;-2.768;2023-06-22T14:53:54;26.10;49.60
72814;DHT22;60945;48.516;-2.768;2023-06-22T14:56:20;26.30;49.10
72814;DHT22;60945;48.516;-2.768;2023-06-22T14:58:45;26.00;49.20
72814;DHT22;60945;48.516;-2.768;2023-06-22T15:01:11;25.70;50.50
72814;DHT22;60945;48.516;-2.768;2023-06-22T15:03:37;25.60;51.30
72814;DHT22;60945;48.516;-2.768;2023-06-22T15:06:04;25.90;50.70
72814;DHT22;60945;48.516;-2.768;2023-06-22T15:08:30;25.80;50.40
72814;DHT22;60945;48.516;-2.768;2023-06-22T15:10:58;25.80;51.50
72814;DHT22;60945;48.516;-2.768;2023-06-22T15:13:24;26.10;51.20
72814;DHT22;60945;48.516;-2.768;2023-06-22T15:15:50;26.50;49.90
72814;DHT22;60945;48.516;-2.768;2023-06-22T15:18:16;26.60;49.70
72814;DHT22;60945;48.516;-2.768;2023-06-22T15:20:43;26.50;49.60